Time;durP1;ratioP1;P1;durP2;ratioP2;P2;SDS_P1;SDS_P2;PMS_P1;PMS_P2;Temp;Humidity;BMP_temperature;BMP_pressure;BME280_temperature;BME280_humidity;BME280_pressure;Samples;Min_cycle;Max_cycle;Signal;HPM_P1;HPM_P2
2022/08/12 00:43:59;;;;;;;10.90;3.80;;;;;;;-143.84;53.04;44988.13;5131352;27;20847;-69
2022/08/12 00:46:35;;;;;;;3.30;3.10;;;;;;;-143.84;53.18;44969.09;5130825;27;20469;-69
2022/08/12 00:49:04;;;;;;;4.33;3.50;;;;;;;-143.84;53.29;44982.41;5132056;27;21023;-69
2022/08/12 00:54:14;;;;;;;3.43;3.10;;;;;;;-143.84;53.45;44980.53;5130770;27;20542;-69
2022/08/12 00:56:42;;;;;;;7.80;3.83;;;;;;;-143.84;53.56;45049.06;5132198;27;20462;-69
2022/08/12 00:59:09;;;;;;;3.30;3.10;;;;;;;-143.84;53.75;44993.84;5132318;27;20442;-69
2022/08/12 01:01:37;;;;;;;4.90;3.17;;;;;;;-143.84;53.55;44980.53;5132326;27;20495;-69
2022/08/12 01:12:29;;;;;;;3.10;2.80;;;;;;;-143.84;54.33;44984.31;5132263;27;20501;-69
2022/08/12 01:14:57;;;;;;;3.87;3.57;;;;;;;-143.84;54.28;45009.09;5131997;27;20438;-69
2022/08/12 01:17:25;;;;;;;4.97;3.30;;;;;;;-143.84;54.15;44997.66;5131754;27;20515;-69
2022/08/12 01:19:56;;;;;;;4.20;3.90;;;;;;;-143.84;54.21;44997.66;5131807;27;20515;-69
2022/08/12 01:22:26;;;;;;;6.93;2.83;;;;;;;-143.84;54.63;44990.03;5131805;27;20859;-69
2022/08/12 01:24:59;;;;;;;3.63;3.33;;;;;;;-143.84;54.53;44991.94;5131503;27;20485;-69
2022/08/12 01:27:29;;;;;;;3.47;3.20;;;;;;;-143.84;54.78;44982.41;5131861;27;20481;-69
2022/08/12 01:29:57;;;;;;;7.97;3.03;;;;;;;-143.84;54.94;44984.31;5131607;27;20449;-69
2022/08/12 01:32:27;;;;;;;4.40;2.90;;;;;;;-143.84;54.94;44990.03;5131489;27;20438;-69
2022/08/12 01:35:01;;;;;;;10.83;3.63;;;;;;;-143.84;55.13;44999.56;5131790;27;20499;-69
2022/08/12 01:37:31;;;;;;;3.33;3.13;;;;;;;-143.84;55.51;44995.75;5131884;27;20522;-69
2022/08/12 01:40:02;;;;;;;3.57;3.27;;;;;;;-143.84;55.66;45007.19;5131462;27;20442;-69
2022/08/12 01:42:42;;;;;;;3.70;3.37;;;;;;;-143.84;55.86;44995.75;5131573;27;20880;-69
2022/08/12 01:45:11;;;;;;;4.10;3.60;;;;;;;-143.84;55.85;44969.09;5131403;27;20478;-69
2022/08/12 01:48:02;;;;;;;8.93;3.60;;;;;;;-143.84;56.11;45007.19;5131349;27;20464;-69
2022/08/12 01:50:41;;;;;;;4.70;3.43;;;;;;;-143.84;56.52;44991.94;5131519;27;20434;-69
2022/08/12 01:53:11;;;;;;;3.90;3.47;;;;;;;-143.84;56.74;44988.13;5131132;27;20791;-69
2022/08/12 01:55:43;;;;;;;3.50;3.30;;;;;;;-143.84;56.88;44986.22;5131222;27;20465;-69
2022/08/12 01:58:19;;;;;;;3.30;3.20;;;;;;;-143.84;57.27;45005.28;5131175;27;20491;-69
2022/08/12 02:00:57;;;;;;;9.53;3.80;;;;;;;-143.84;57.44;45024.31;5131478;27;20437;-68
2022/08/12 02:12:14;;;;;;;4.23;3.87;;;;;;;-143.84;58.38;45010.97;5131023;27;20418;-69
2022/08/12 02:14:55;;;;;;;4.30;3.90;;;;;;;-143.84;58.23;45012.88;5130849;27;20516;-69
2022/08/12 02:17:45;;;;;;;3.80;3.53;;;;;;;-143.84;58.55;45010.97;5131471;27;20962;-69
2022/08/12 02:20:20;;;;;;;3.97;3.67;;;;;;;-143.84;58.75;45014.78;5130969;27;20995;-69
2022/08/12 02:22:48;;;;;;;3.70;3.40;;;;;;;-143.84;59.26;45020.50;5130712;27;20453;-69
2022/08/12 02:25:21;;;;;;;4.40;4.00;;;;;;;-143.84;59.25;45018.59;5130251;27;20534;-69
2022/08/12 02:27:54;;;;;;;4.13;3.83;;;;;;;-143.84;59.72;45014.78;5130552;27;20526;-69
2022/08/12 02:30:23;;;;;;;5.50;3.77;;;;;;;-143.84;60.02;44986.22;5130654;27;20442;-69
2022/08/12 02:32:52;;;;;;;5.07;4.03;;;;;;;-143.84;60.37;44978.63;5130768;27;20449;-69
2022/08/12 02:35:23;;;;;;;5.40;4.27;;;;;;;-143.84;60.75;45005.28;5130392;27;20441;-69
2022/08/12 02:37:52;;;;;;;3.70;3.50;;;;;;;-143.84;60.64;45012.88;5130367;27;20491;-69
2022/08/12 02:40:20;;;;;;;5.40;4.10;;;;;;;-143.84;60.33;45009.09;5130451;27;20461;-69
2022/08/12 02:42:54;;;;;;;5.33;3.33;;;;;;;-143.84;60.38;44993.84;5130398;28;20434;-69
2022/08/12 02:45:32;;;;;;;6.13;3.93;;;;;;;-143.84;60.20;45005.28;5130458;28;20450;-69
2022/08/12 02:48:06;;;;;;;5.63;3.97;;;;;;;-143.84;60.60;45001.47;5130308;28;20953;-69
2022/08/12 02:50:36;;;;;;;4.30;3.90;;;;;;;-143.84;60.75;44993.84;5130402;28;20473;-69
2022/08/12 02:53:06;;;;;;;4.30;4.00;;;;;;;-143.84;60.58;44993.84;5130157;28;20448;-69
2022/08/12 02:55:36;;;;;;;11.87;4.37;;;;;;;-143.84;60.69;44999.56;5130487;28;20446;-69
2022/08/12 02:58:08;;;;;;;4.50;4.20;;;;;;;-143.84;60.95;45009.09;5130590;28;21100;-69
2022/08/12 03:00:36;;;;;;;4.77;4.37;;;;;;;-143.84;60.97;45009.09;5130412;28;21022;-69
2022/08/12 03:03:06;;;;;;;7.80;4.20;;;;;;;-143.84;61.50;44990.03;5130652;28;20764;-69
2022/08/12 03:05:35;;;;;;;6.40;5.00;;;;;;;-143.84;61.44;44993.84;5130237;28;20441;-69
2022/08/12 03:08:05;;;;;;;7.00;5.33;;;;;;;-143.84;61.80;44997.66;5129994;28;20868;-69
2022/08/12 03:10:40;;;;;;;9.63;5.00;;;;;;;-143.84;61.91;44995.75;5130466;28;20502;-69
2022/08/12 03:13:10;;;;;;;6.10;5.13;;;;;;;-143.84;62.06;45016.69;5130408;28;20806;-69
2022/08/12 03:15:37;;;;;;;9.07;4.77;;;;;;;-143.84;62.43;44991.94;5131595;27;20502;-69
2022/08/12 03:18:13;;;;;;;7.03;5.00;;;;;;;-143.84;62.97;45014.78;5134077;27;20481;-69
2022/08/12 03:20:41;;;;;;;9.13;6.47;;;;;;;-143.84;62.75;45003.38;5134392;27;20434;-69
2022/08/12 03:23:12;;;;;;;9.30;5.47;;;;;;;-143.84;63.42;44993.84;5133885;27;20430;-69
2022/08/12 03:25:40;;;;;;;7.00;5.67;;;;;;;-143.84;63.35;45016.69;5133565;27;20481;-72
2022/08/12 03:28:48;;;;;;;6.20;5.37;;;;;;;-143.84;63.34;44991.94;5133181;27;20546;-72
2022/08/12 03:31:08;;;;;;;6.00;5.50;;;;;;;-143.84;63.72;44999.56;5133097;27;20521;-72
2022/08/12 03:33:38;;;;;;;8.23;5.07;;;;;;;-143.84;64.34;45010.97;5133164;27;20949;-72
2022/08/12 03:36:07;;;;;;;13.27;5.77;;;;;;;-143.84;64.46;45009.09;5133056;27;20462;-72
2022/08/12 03:38:39;;;;;;;6.83;6.33;;;;;;;-143.84;64.82;45012.88;5132800;27;20434;-72
2022/08/12 03:41:33;;;;;;;6.30;5.60;;;;;;;-143.84;65.24;45026.22;5132334;27;20438;-72
2022/08/12 04:00:47;;;;;;;7.77;6.03;;;;;;;-143.84;59.53;45001.47;5131374;27;20777;-72
2022/08/12 04:05:56;;;;;;;6.13;5.63;;;;;;;-143.84;56.13;44965.28;5131173;27;20528;-73
2022/08/12 04:08:25;;;;;;;5.70;5.20;;;;;;;-143.84;54.19;44976.72;5132604;27;20434;-73
2022/08/12 04:13:37;;;;;;;11.40;5.93;;;;;;;-143.84;50.59;44967.19;5132592;27;20798;-73
2022/08/12 04:16:09;;;;;;;5.70;5.20;;;;;;;-143.84;49.63;44965.28;5132097;27;20620;-73
2022/08/12 04:18:37;;;;;;;5.03;4.63;;;;;;;-143.84;49.01;44967.19;5132192;27;20458;-72
2022/08/12 04:21:09;;;;;;;14.60;5.43;;;;;;;-143.84;48.10;44971.00;5132228;27;20848;-73
2022/08/12 04:23:38;;;;;;;5.20;4.80;;;;;;;-143.84;47.52;44957.66;5131794;27;20445;-73
2022/08/12 04:26:05;;;;;;;5.77;5.23;;;;;;;-143.84;46.96;44959.56;5131916;27;20510;-73
2022/08/12 04:28:33;;;;;;;5.87;5.37;;;;;;;-143.84;46.71;44950.06;5123778;27;20455;-73
2022/08/12 04:31:00;;;;;;;10.63;5.20;;;;;;;-143.84;46.40;44948.16;5111487;28;20841;-73
2022/08/12 04:33:31;;;;;;;4.53;4.23;;;;;;;-143.84;46.32;44955.75;5111524;28;20446;-73
2022/08/12 04:35:58;;;;;;;11.40;4.80;;;;;;;-143.84;46.01;44934.81;5111620;28;20927;-73
2022/08/12 04:38:25;;;;;;;8.73;5.20;;;;;;;-143.84;45.83;44946.25;5111316;28;20438;-73
2022/08/12 04:40:53;;;;;;;5.60;5.20;;;;;;;-143.84;45.97;44955.75;5111428;28;20435;-72
2022/08/12 04:43:20;;;;;;;5.70;5.20;;;;;;;-143.84;46.24;44946.25;5111114;28;20495;-73
2022/08/12 04:45:48;;;;;;;6.23;5.63;;;;;;;-143.84;46.72;44934.81;5111236;28;20442;-73
2022/08/12 04:48:15;;;;;;;6.30;5.20;;;;;;;-143.84;46.55;44932.91;5110985;28;20482;-73
2022/08/12 04:50:46;;;;;;;5.90;5.40;;;;;;;-143.84;46.55;44944.34;5110951;28;20435;-73
2022/08/12 04:53:13;;;;;;;6.47;5.47;;;;;;;-143.84;46.50;44921.50;5111300;28;21116;-73
2022/08/12 04:55:44;;;;;;;9.20;4.70;;;;;;;-143.84;47.03;44936.72;5111138;28;20507;-73
2022/08/12 04:58:12;;;;;;;8.10;5.73;;;;;;;-143.84;46.37;44944.34;5110774;28;20518;-73
2022/08/12 05:00:39;;;;;;;5.70;5.20;;;;;;;-143.84;46.37;44950.06;5110817;28;20526;-73
2022/08/12 05:03:08;;;;;;;6.00;5.50;;;;;;;-143.84;46.35;44961.47;5128659;27;20430;-73
2022/08/12 05:05:36;;;;;;;5.97;5.50;;;;;;;-143.84;46.51;44936.72;5131537;27;20426;-73
2022/08/12 05:08:10;;;;;;;7.03;6.07;;;;;;;-143.84;46.26;44934.81;5130581;27;20480;-74
2022/08/12 05:10:37;;;;;;;6.40;5.80;;;;;;;-143.84;46.25;44957.66;5130281;27;20495;-72
2022/08/12 05:13:09;;;;;;;6.17;5.67;;;;;;;-143.84;46.19;44919.59;5130630;27;20434;-72
2022/08/12 05:15:38;;;;;;;13.33;6.43;;;;;;;-143.84;45.89;44948.16;5130645;27;20438;-72
2022/08/12 05:18:06;;;;;;;6.10;5.60;;;;;;;-143.84;46.41;44927.19;5130499;27;20506;-73
2022/08/12 05:20:33;;;;;;;6.50;5.90;;;;;;;-143.84;46.06;44951.97;5113082;27;20446;-73
2022/08/12 05:23:10;;;;;;;7.43;6.40;;;;;;;-143.84;46.14;44942.44;5130829;27;20460;-73
2022/08/12 05:25:37;;;;;;;8.10;7.07;;;;;;;-143.84;46.17;44917.69;5130713;27;20477;-73
2022/08/12 05:28:05;;;;;;;9.30;6.43;;;;;;;-143.84;46.35;44940.53;5130723;27;20470;-73
2022/08/12 05:30:34;;;;;;;8.20;6.70;;;;;;;-143.84;46.53;44892.94;5130740;27;20472;-73
2022/08/12 05:33:04;;;;;;;7.80;6.50;;;;;;;-143.84;45.87;44951.97;5130693;27;20449;-73
2022/08/12 05:35:35;;;;;;;9.63;6.57;;;;;;;-143.84;45.98;44932.91;5130754;27;20534;-73
2022/08/12 05:40:49;;;;;;;21.40;8.13;;;;;;;-143.84;45.72;44915.78;5130734;27;20437;-73
2022/08/12 05:43:17;;;;;;;9.23;6.93;;;;;;;-143.84;45.66;44915.78;5130758;27;20523;-73
2022/08/12 05:45:45;;;;;;;7.60;6.90;;;;;;;-143.84;45.12;44915.78;5130668;27;20970;-73
2022/08/12 05:48:13;;;;;;;7.20;6.60;;;;;;;-143.84;44.82;44913.88;5130288;27;21048;-69
2022/08/12 05:50:41;;;;;;;8.13;7.27;;;;;;;-143.84;44.77;44911.97;5131719;27;20541;-70
2022/08/12 05:53:08;;;;;;;9.07;6.77;;;;;;;-143.84;44.49;44913.88;5131129;27;20438;-69
2022/08/12 05:55:37;;;;;;;9.97;7.20;;;;;;;-143.84;44.48;44902.44;5131397;27;20514;-69
2022/08/12 05:58:06;;;;;;;8.40;7.60;;;;;;;-143.84;45.15;44898.66;5130875;27;20966;-69
2022/08/12 06:00:35;;;;;;;10.30;7.50;;;;;;;-143.84;45.19;44894.84;5130739;27;20434;-69
2022/08/12 06:03:04;;;;;;;8.90;7.70;;;;;;;-143.84;44.78;44906.25;5130918;27;20442;-69
2022/08/12 06:05:34;;;;;;;13.33;8.70;;;;;;;-143.84;44.55;44917.69;5130981;27;20495;-69
2022/08/12 06:08:04;;;;;;;9.50;8.50;;;;;;;-143.84;45.17;44923.41;5130829;27;20620;-70
2022/08/12 06:10:32;;;;;;;9.23;8.40;;;;;;;-143.84;44.89;44904.34;5130821;27;20441;-69
2022/08/12 06:13:01;;;;;;;8.53;7.83;;;;;;;-143.84;45.07;44906.25;5130815;27;20426;-69
2022/08/12 06:15:30;;;;;;;9.10;7.90;;;;;;;-143.84;45.33;44906.25;5131012;27;20446;-69
2022/08/12 06:18:06;;;;;;;10.73;8.47;;;;;;;-143.84;44.74;44898.66;5130964;27;20927;-70
2022/08/12 06:20:34;;;;;;;9.90;9.00;;;;;;;-143.84;44.70;44896.75;5130569;27;20437;-69
2022/08/12 06:23:01;;;;;;;11.67;8.20;;;;;;;-143.84;44.53;44889.13;5130665;27;20518;-70
2022/08/12 06:25:29;;;;;;;11.57;9.43;;;;;;;-143.84;43.41;44879.59;5130445;27;20513;-69
2022/08/12 06:27:58;;;;;;;14.40;8.70;;;;;;;-143.84;43.14;44879.59;5130415;27;20469;-70
2022/08/12 06:30:27;;;;;;;10.67;8.70;;;;;;;-143.84;42.32;44879.59;5130598;27;20798;-69
2022/08/12 06:32:56;;;;;;;18.73;8.10;;;;;;;-143.84;42.27;44873.88;5130580;27;20442;-70
2022/08/12 06:35:25;;;;;;;9.10;8.20;;;;;;;-143.84;41.21;44879.59;5130225;27;20434;-69
2022/08/12 06:37:54;;;;;;;12.00;7.90;;;;;;;-143.84;41.34;44875.78;5130483;27;21183;-69
2022/08/12 06:42:46;;;;;;;9.00;8.10;;;;;;;-143.84;40.96;44868.19;5130233;27;20438;-70
2022/08/12 06:43:08;;;;;;;9.60;8.60;;;;;;;-143.84;40.14;44868.19;5130686;27;20782;-70
2022/08/12 06:45:43;;;;;;;10.83;8.50;;;;;;;-143.84;40.37;44849.13;5130511;28;20482;-70
2022/08/12 06:48:12;;;;;;;9.80;8.90;;;;;;;-143.84;40.12;44862.47;5130547;28;20481;-70
2022/08/12 06:50:41;;;;;;;7.67;6.97;;;;;;;-143.84;40.81;44849.13;5132261;27;20453;-70
2022/08/12 06:53:08;;;;;;;8.53;7.53;;;;;;;-143.84;39.92;44877.69;5134837;27;20530;-70
2022/08/12 06:55:35;;;;;;;10.23;9.13;;;;;;;-143.84;39.29;44856.75;5134770;27;20454;-69
2022/08/12 06:58:04;;;;;;;13.83;8.67;;;;;;;-143.84;39.70;44862.47;5134637;27;20871;-70
2022/08/12 07:00:33;;;;;;;12.20;7.20;;;;;;;-143.84;39.51;44870.09;5134568;27;20442;-70
2022/08/12 07:03:03;;;;;;;11.90;8.00;;;;;;;-143.84;38.97;44839.63;5134366;27;20433;-70
2022/08/12 07:05:31;;;;;;;9.50;8.50;;;;;;;-143.84;38.27;44837.72;5134632;27;20442;-69
2022/08/12 07:08:09;;;;;;;17.50;8.60;;;;;;;-143.84;38.28;44833.91;5134387;27;20492;-70
2022/08/12 07:10:41;;;;;;;12.47;7.50;;;;;;;-143.84;39.26;44860.56;5134423;27;21037;-70
2022/08/12 07:13:09;;;;;;;9.40;8.50;;;;;;;-143.84;38.09;44828.19;5134056;27;21148;-69
2022/08/12 07:15:38;;;;;;;8.93;7.47;;;;;;;-143.84;37.96;44839.63;5134211;27;20868;-69
2022/08/12 07:18:14;;;;;;;9.83;7.37;;;;;;;-143.84;38.55;44839.63;5134196;27;20503;-70
2022/08/12 07:20:44;;;;;;;10.17;9.10;;;;;;;-143.84;38.77;44824.38;5134308;27;20440;-70
2022/08/12 07:23:12;;;;;;;8.30;7.60;;;;;;;-143.84;37.84;44835.81;5134292;27;20430;-70
2022/08/12 07:25:39;;;;;;;10.33;9.00;;;;;;;-143.84;38.41;44862.47;5133938;27;20465;-70
2022/08/12 07:28:12;;;;;;;8.40;7.60;;;;;;;-143.84;37.67;44862.47;5134064;27;20568;-69
2022/08/12 07:30:41;;;;;;;17.93;8.23;;;;;;;-143.84;38.88;44797.72;5134102;27;20449;-69
2022/08/12 07:33:10;;;;;;;9.30;8.37;;;;;;;-143.84;38.62;44843.44;5133823;27;20434;-70
2022/08/12 07:35:44;;;;;;;9.63;8.40;;;;;;;-143.84;38.15;44835.81;5134031;27;21109;-70
2022/08/12 07:38:29;;;;;;;12.53;8.90;;;;;;;-143.84;37.83;44778.69;5133932;27;20442;-70
2022/08/12 07:41:00;;;;;;;9.77;8.33;;;;;;;-143.84;36.91;44809.16;5133598;27;20510;-70
2022/08/12 07:43:28;;;;;;;9.63;8.73;;;;;;;-143.84;36.79;44801.53;5133450;27;21056;-69
2022/08/12 07:45:56;;;;;;;10.60;8.03;;;;;;;-143.84;35.99;44820.56;5133768;27;20548;-70
2022/08/12 07:48:24;;;;;;;13.57;8.83;;;;;;;-143.84;36.11;44792.00;5133780;27;20881;-70
2022/08/12 07:50:52;;;;;;;13.00;8.87;;;;;;;-143.84;37.13;44812.97;5133576;27;20967;-70
2022/08/12 07:53:20;;;;;;;9.00;8.20;;;;;;;-143.84;36.39;44790.13;5133584;27;20442;-70
2022/08/12 07:55:48;;;;;;;16.23;8.10;;;;;;;-143.84;36.79;44782.50;5133272;27;20445;-70
2022/08/12 07:58:16;;;;;;;9.43;8.63;;;;;;;-143.84;36.77;44812.97;5133083;27;20450;-70
2022/08/12 08:00:43;;;;;;;11.33;8.80;;;;;;;-143.84;36.42;44805.34;5132781;27;20566;-70
2022/08/12 08:03:12;;;;;;;9.63;8.63;;;;;;;-143.84;36.21;44780.59;5133403;27;20438;-70
2022/08/12 08:05:45;;;;;;;12.33;8.03;;;;;;;-143.84;35.92;44784.41;5133479;27;20448;-70
2022/08/12 08:08:20;;;;;;;9.63;8.60;;;;;;;-143.84;36.04;44763.47;5133306;27;20566;-70
2022/08/12 08:10:51;;;;;;;9.20;8.40;;;;;;;-143.84;35.88;44792.00;5133323;27;20811;-70
2022/08/12 08:13:17;;;;;;;11.77;7.90;;;;;;;-143.84;35.16;44797.72;5133000;27;20955;-70
2022/08/12 08:15:46;;;;;;;9.10;7.77;;;;;;;-143.84;36.22;44784.41;5133022;27;20442;-70
2022/08/12 08:18:15;;;;;;;8.97;8.17;;;;;;;-143.84;35.84;44755.84;5133117;27;20446;-70
2022/08/12 08:20:45;;;;;;;10.87;9.00;;;;;;;-143.84;36.13;44755.84;5133262;27;20538;-70
2022/08/12 08:23:15;;;;;;;11.27;8.63;;;;;;;-143.84;34.27;44767.25;5133043;27;20491;-70
2022/08/12 08:25:44;;;;;;;11.13;8.83;;;;;;;-143.84;35.01;44759.66;5132475;27;20478;-70
2022/08/12 08:28:16;;;;;;;13.33;8.73;;;;;;;-143.84;34.20;44740.59;5132703;27;20477;-70
2022/08/12 08:30:46;;;;;;;13.50;8.63;;;;;;;-143.84;35.04;44778.69;5132922;27;20434;-70
2022/08/12 08:33:15;;;;;;;15.67;8.30;;;;;;;-143.84;34.05;44790.13;5132970;27;20434;-70
2022/08/12 08:35:44;;;;;;;10.47;9.30;;;;;;;-143.84;33.92;44792.00;5132600;27;20951;-68
2022/08/12 08:38:13;;;;;;;12.00;9.37;;;;;;;-143.84;34.32;44750.13;5132778;27;20517;-71
2022/08/12 08:43:37;;;;;;;9.77;8.83;;;;;;;-143.84;34.72;44786.31;5083133;27;20606;-70
2022/08/12 08:46:04;;;;;;;11.57;9.20;;;;;;;-143.84;34.62;44807.25;5132361;27;20453;-70
2022/08/12 08:48:33;;;;;;;10.70;9.63;;;;;;;-143.84;35.13;44767.25;5132415;27;20470;-70
2022/08/12 08:51:04;;;;;;;11.00;8.53;;;;;;;-143.84;35.02;44763.47;5132397;27;20462;-70
2022/08/12 08:53:33;;;;;;;15.63;9.20;;;;;;;-143.84;34.53;44772.97;5132121;27;20446;-70
2022/08/12 08:56:00;;;;;;;11.73;8.97;;;;;;;-143.84;34.59;44748.22;5132535;27;20458;-69
2022/08/12 08:58:27;;;;;;;10.97;8.87;;;;;;;-143.84;34.65;44774.88;5132015;27;20519;-70
2022/08/12 09:00:55;;;;;;;10.30;9.30;;;;;;;-143.84;33.51;44774.88;5131893;27;20438;-69
2022/08/12 09:03:23;;;;;;;10.43;9.40;;;;;;;-143.84;35.10;44753.94;5131820;27;20442;-70
2022/08/12 09:05:50;;;;;;;14.50;9.00;;;;;;;-143.84;33.80;44767.25;5131861;27;20482;-69
2022/08/12 09:08:18;;;;;;;12.43;9.33;;;;;;;-143.84;34.37;44780.59;5131778;27;20473;-70
2022/08/12 09:10:46;;;;;;;12.27;9.90;;;;;;;-143.84;34.35;44792.00;5131680;27;20437;-70
2022/08/12 09:13:27;;;;;;;13.40;9.47;;;;;;;-143.84;33.91;44801.53;5130965;27;20450;-70
2022/08/12 09:15:56;;;;;;;11.43;9.20;;;;;;;-143.84;33.44;44759.66;5131765;27;20470;-70
2022/08/12 09:18:23;;;;;;;15.03;9.60;;;;;;;-143.84;34.52;44736.81;5131671;27;20446;-70
2022/08/12 09:20:50;;;;;;;13.67;10.20;;;;;;;-143.84;34.09;44780.59;5131822;27;20438;-70
2022/08/12 09:23:18;;;;;;;11.97;9.63;;;;;;;-143.84;34.68;44755.84;5131508;27;20436;-70
2022/08/12 09:25:47;;;;;;;16.30;9.23;;;;;;;-143.84;34.31;44752.03;5131242;27;20478;-70
2022/08/12 09:28:14;;;;;;;19.87;11.47;;;;;;;-143.84;33.34;44761.56;5131667;27;20500;-70
2022/08/12 09:30:45;;;;;;;21.50;10.73;;;;;;;-143.84;34.40;44744.41;5131188;27;20438;-70
2022/08/12 09:33:14;;;;;;;12.07;9.83;;;;;;;-143.84;32.52;44769.16;5131473;27;20444;-70
2022/08/12 09:35:43;;;;;;;17.53;10.57;;;;;;;-143.84;33.60;44748.22;5130965;27;20476;-70
2022/08/12 09:38:16;;;;;;;12.60;8.80;;;;;;;-143.84;34.20;44734.91;5129631;27;20442;-70
2022/08/12 09:40:46;;;;;;;10.63;9.40;;;;;;;-143.84;33.79;44767.25;5130038;27;20430;-70
2022/08/12 09:46:16;;;;;;;11.50;9.70;;;;;;;-143.84;34.20;44736.81;5066963;28;20440;-70
2022/08/12 09:48:45;;;;;;;12.20;9.27;;;;;;;-143.84;33.06;44753.94;5066752;28;21014;-70
2022/08/12 09:51:13;;;;;;;15.37;10.13;;;;;;;-143.84;32.80;44788.22;5096560;27;20499;-70
2022/08/12 09:53:41;;;;;;;13.70;10.27;;;;;;;-143.84;32.31;44740.59;5130486;27;20958;-70
2022/08/12 09:56:16;;;;;;;19.57;10.10;;;;;;;-143.84;33.51;44788.22;5130598;27;20442;-70
2022/08/12 09:58:46;;;;;;;13.07;9.30;;;;;;;-143.84;34.39;44752.03;5130856;27;20452;-70
2022/08/12 10:01:14;;;;;;;10.53;9.57;;;;;;;-143.84;35.23;44772.97;5130911;27;20481;-70
2022/08/12 10:03:45;;;;;;;11.23;10.03;;;;;;;-143.84;36.26;44734.91;5130713;27;20450;-70
2022/08/12 10:06:12;;;;;;;12.13;10.77;;;;;;;-143.84;37.47;44790.13;5130893;27;20438;-69
2022/08/12 10:08:40;;;;;;;14.80;10.07;;;;;;;-143.84;37.61;44824.38;5130999;27;20534;-69
2022/08/12 10:13:55;;;;;;;13.53;10.23;;;;;;;-143.84;38.98;44820.56;5130797;27;21007;-69
2022/08/12 10:16:27;;;;;;;19.43;11.07;;;;;;;-143.84;40.72;44818.66;5130566;27;20514;-70
2022/08/12 10:18:58;;;;;;;11.17;10.07;;;;;;;-143.84;39.65;44847.22;5113088;27;20503;-70
2022/08/12 10:21:29;;;;;;;20.93;11.77;;;;;;;-143.84;39.79;44843.44;5130511;27;20478;-69
2022/08/12 10:23:57;;;;;;;17.33;11.77;;;;;;;-143.84;41.11;44835.81;5130013;27;20995;-69
2022/08/12 10:31:56;;;;;;;14.30;10.07;;;;;;;-143.84;41.54;44851.03;5130500;27;20474;-70
2022/08/12 10:34:26;;;;;;;14.60;10.80;;;;;;;-143.84;41.79;44856.75;5130760;27;20951;-69
2022/08/12 10:36:57;;;;;;;14.60;11.37;;;;;;;-143.84;41.59;44858.66;5130370;27;20446;-70
2022/08/12 10:39:26;;;;;;;11.50;10.30;;;;;;;-143.84;41.63;44835.81;5130326;27;20481;-70
2022/08/12 10:44:38;;;;;;;21.63;10.03;;;;;;;-143.84;43.13;44839.63;5130772;27;20429;-69
2022/08/12 10:47:05;;;;;;;11.83;10.60;;;;;;;-143.84;42.86;44873.88;5130891;27;20448;-69
2022/08/12 10:49:35;;;;;;;14.53;10.50;;;;;;;-143.84;43.74;44885.31;5130225;28;20474;-69
2022/08/12 10:52:03;;;;;;;10.47;9.27;;;;;;;-143.84;44.39;44828.19;5130336;28;20458;-69
2022/08/12 10:54:31;;;;;;;11.67;10.57;;;;;;;-143.84;44.31;44866.28;5130295;28;20449;-69
2022/08/12 10:56:59;;;;;;;18.50;11.20;;;;;;;-143.84;44.16;44862.47;5130576;28;20442;-69
2022/08/12 10:59:28;;;;;;;10.87;9.77;;;;;;;-143.84;46.26;44864.38;5130169;28;20446;-70
2022/08/12 11:01:55;;;;;;;10.43;9.43;;;;;;;-143.84;45.35;44887.22;5130339;28;20466;-70
2022/08/12 11:04:23;;;;;;;16.50;11.30;;;;;;;-143.84;46.09;44870.09;5130194;28;20471;-69
2022/08/12 11:06:53;;;;;;;12.87;10.67;;;;;;;-143.84;46.12;44860.56;5129946;28;20446;-69
2022/08/12 11:09:26;;;;;;;15.03;10.50;;;;;;;-143.84;45.20;44854.84;5130025;28;20481;-69
2022/08/12 11:11:54;;;;;;;11.37;10.17;;;;;;;-143.84;47.12;44864.38;5130096;28;20442;-70
2022/08/12 11:14:27;;;;;;;11.50;10.30;;;;;;;-143.84;46.44;44887.22;5130256;28;20441;-70
2022/08/12 11:16:56;;;;;;;11.37;10.27;;;;;;;-143.84;45.83;44864.38;5130000;28;20454;-69
2022/08/12 11:19:23;;;;;;;12.60;10.27;;;;;;;-143.84;46.78;44858.66;5129956;28;20445;-69
2022/08/12 11:21:53;;;;;;;12.33;10.90;;;;;;;-143.84;45.72;44881.50;5130006;28;20438;-69
2022/08/12 11:24:20;;;;;;;25.23;10.97;;;;;;;-143.84;45.89;44856.75;5129991;28;20481;-70
2022/08/12 11:26:48;;;;;;;11.43;10.23;;;;;;;-143.84;46.27;44889.13;5130134;28;20815;-69
2022/08/12 11:29:16;;;;;;;15.70;11.03;;;;;;;-143.84;48.00;44866.28;5129991;28;20474;-69
2022/08/12 11:31:43;;;;;;;13.13;10.27;;;;;;;-143.84;45.77;44873.88;5129861;28;20434;-70
2022/08/12 11:34:10;;;;;;;14.63;10.47;;;;;;;-143.84;43.50;44900.53;5130440;28;20437;-70
2022/08/12 11:36:37;;;;;;;11.77;10.47;;;;;;;-143.84;44.52;44900.53;5131547;27;20433;-70
2022/08/12 11:39:07;;;;;;;13.20;10.70;;;;;;;-143.84;44.44;44854.84;5133667;27;20486;-70
2022/08/12 11:41:37;;;;;;;11.33;10.23;;;;;;;-143.84;45.40;44870.09;5133647;27;20438;-69
2022/08/12 11:44:05;;;;;;;11.03;9.67;;;;;;;-143.84;45.59;44881.50;5133698;27;20898;-69
2022/08/12 11:46:35;;;;;;;9.90;9.00;;;;;;;-143.84;46.26;44889.13;5133537;27;20438;-69
2022/08/12 11:49:02;;;;;;;19.23;11.63;;;;;;;-143.84;45.95;44866.28;5134826;27;20501;-79
2022/08/12 11:51:30;;;;;;;12.73;10.10;;;;;;;-143.84;46.56;44847.22;5135200;27;20854;-79
2022/08/12 11:53:57;;;;;;;11.43;9.87;;;;;;;-143.84;47.52;44862.47;5134615;27;21004;-79
2022/08/12 11:56:26;;;;;;;13.93;10.90;;;;;;;-143.84;48.71;44896.75;5134468;27;20441;-78
2022/08/12 11:58:53;;;;;;;11.33;10.13;;;;;;;-143.84;48.11;44854.84;5134881;27;20446;-79
2022/08/12 12:01:20;;;;;;;15.30;10.80;;;;;;;-143.84;48.43;44873.88;5134759;27;20456;-79
2022/08/12 12:03:47;;;;;;;11.07;9.97;;;;;;;-143.84;48.46;44868.19;5134499;27;20444;-79
2022/08/12 12:06:15;;;;;;;19.83;12.20;;;;;;;-143.84;48.57;44873.88;5134872;27;20431;-79
2022/08/12 12:08:42;;;;;;;11.03;10.00;;;;;;;-143.84;48.76;44919.59;5133953;27;20473;-79
2022/08/12 12:11:09;;;;;;;14.30;10.37;;;;;;;-143.84;49.68;44898.66;5133992;27;20430;-79
2022/08/12 12:13:38;;;;;;;11.43;10.23;;;;;;;-143.84;49.73;44879.59;5133933;27;20438;-79
2022/08/12 12:16:05;;;;;;;12.93;11.63;;;;;;;-143.84;49.71;44866.28;5134174;27;20446;-79
2022/08/12 12:18:34;;;;;;;13.23;10.73;;;;;;;-143.84;50.30;44873.88;5134041;27;21139;-79
2022/08/12 12:21:03;;;;;;;16.83;11.87;;;;;;;-143.84;50.20;44885.31;5133980;27;20548;-79
2022/08/12 12:23:30;;;;;;;13.40;11.20;;;;;;;-143.84;49.83;44892.94;5134101;27;20434;-79
2022/08/12 12:25:58;;;;;;;17.20;11.93;;;;;;;-143.84;49.86;44885.31;5134098;27;20916;-79
2022/08/12 12:28:25;;;;;;;13.10;11.70;;;;;;;-143.84;50.39;44898.66;5134103;27;20491;-79
2022/08/12 12:30:53;;;;;;;13.07;11.77;;;;;;;-143.84;50.22;44889.13;5134022;27;20441;-79
2022/08/12 12:33:21;;;;;;;14.70;10.90;;;;;;;-143.84;50.73;44932.91;5133685;27;20455;-79
2022/08/12 12:35:48;;;;;;;14.37;12.40;;;;;;;-143.84;52.41;44873.88;5133557;27;20487;-79
2022/08/12 12:38:15;;;;;;;19.03;12.57;;;;;;;-143.84;53.21;44906.25;5134281;27;20950;-79
2022/08/12 12:40:44;;;;;;;17.83;12.83;;;;;;;-143.84;53.41;44881.50;5134432;27;20522;-78
2022/08/12 12:43:12;;;;;;;13.73;12.37;;;;;;;-143.84;55.68;44894.84;5134911;27;20439;-79
2022/08/12 12:45:39;;;;;;;19.77;12.00;;;;;;;-143.84;55.24;44919.59;5133798;27;20438;-79
2022/08/12 12:48:10;;;;;;;15.40;12.30;;;;;;;-143.84;55.68;44900.53;5132332;27;20437;-79
2022/08/12 12:50:39;;;;;;;16.20;12.17;;;;;;;-143.84;55.54;44917.69;5133588;27;20528;-79
2022/08/12 12:53:07;;;;;;;12.47;11.37;;;;;;;-143.84;55.69;44959.56;5133230;27;20946;-79
2022/08/12 12:55:36;;;;;;;13.57;12.00;;;;;;;-143.84;56.93;44906.25;5133819;27;20458;-79
2022/08/12 12:58:10;;;;;;;21.37;12.00;;;;;;;-143.84;57.65;44908.16;5133554;27;20899;-79
2022/08/12 13:00:41;;;;;;;14.30;12.63;;;;;;;-143.84;57.54;44908.16;5133489;27;20549;-79
2022/08/12 13:03:11;;;;;;;17.87;12.00;;;;;;;-143.84;58.19;44911.97;5133629;27;20892;-79
2022/08/12 13:05:42;;;;;;;18.90;11.80;;;;;;;-143.84;58.40;44904.34;5133539;27;20934;-79
2022/08/12 13:08:23;;;;;;;15.57;12.20;;;;;;;-143.84;58.20;44917.69;5133266;27;20436;-79